createdAt,value
2023-01-13T00:00:39.921Z,0.00
2023-01-13T00:01:39.594Z,0.00
2023-01-13T00:02:39.929Z,0.00
2023-01-13T00:03:39.570Z,0.00
2023-01-13T00:04:39.793Z,0.00
2023-01-13T00:05:40.328Z,0.00
2023-01-13T00:06:40.468Z,0.00
2023-01-13T00:07:39.634Z,0.00
2023-01-13T00:08:39.724Z,0.00
2023-01-13T00:09:39.635Z,0.00
2023-01-13T00:10:39.529Z,0.00
2023-01-13T00:11:39.620Z,0.00
2023-01-13T00:12:39.517Z,0.00
2023-01-13T00:13:39.584Z,0.00
2023-01-13T00:14:39.437Z,0.00
2023-01-13T00:15:39.474Z,0.00
2023-01-13T00:16:39.402Z,0.00
2023-01-13T00:17:39.402Z,0.00
2023-01-13T00:18:39.467Z,0.00
2023-01-13T00:19:39.620Z,0.00
2023-01-13T00:20:39.386Z,0.00
2023-01-13T00:21:39.381Z,0.00
2023-01-13T00:22:39.392Z,0.00
2023-01-13T00:23:39.355Z,0.00
2023-01-13T00:24:39.396Z,0.00
2023-01-13T00:25:39.448Z,0.00
2023-01-13T00:26:39.339Z,0.00
2023-01-13T00:27:39.306Z,0.00
2023-01-13T00:28:39.343Z,0.00
2023-01-13T00:29:39.267Z,0.00
2023-01-13T00:30:39.378Z,0.00
2023-01-13T00:31:39.354Z,0.00
2023-01-13T00:32:39.244Z,0.00
2023-01-13T00:33:39.195Z,0.00
2023-01-13T00:34:39.309Z,0.00
2023-01-13T00:35:39.209Z,0.00
2023-01-13T00:36:39.211Z,0.00
2023-01-13T00:37:39.215Z,0.00
2023-01-13T00:38:39.224Z,0.00
2023-01-13T00:39:39.193Z,0.00
2023-01-13T00:40:39.147Z,0.00
2023-01-13T00:41:39.148Z,0.00
2023-01-13T00:42:39.158Z,0.00
2023-01-13T00:43:39.113Z,0.00
2023-01-13T00:44:39.099Z,0.00
2023-01-13T00:45:39.090Z,0.00
2023-01-13T00:46:39.228Z,0.00
2023-01-13T00:47:39.141Z,0.00
2023-01-13T00:48:39.096Z,0.00
2023-01-13T00:49:39.053Z,0.00
2023-01-13T00:50:39.039Z,0.00
2023-01-13T00:51:39.017Z,0.00
2023-01-13T00:52:41.845Z,0.00
2023-01-13T00:53:39.024Z,0.00
2023-01-13T00:54:39.123Z,0.00
2023-01-13T00:55:39.074Z,0.00
2023-01-13T00:56:40.860Z,0.00
2023-01-13T00:57:39.036Z,0.00
2023-01-13T00:58:38.991Z,0.00
2023-01-13T00:59:38.993Z,0.00
2023-01-13T01:00:39.042Z,0.00
2023-01-13T01:01:39.163Z,0.00
2023-01-13T01:02:38.999Z,0.00
2023-01-13T01:03:38.926Z,0.00
2023-01-13T01:04:38.931Z,0.00
2023-01-13T01:05:38.887Z,0.00
2023-01-13T01:06:38.939Z,0.00
2023-01-13T01:07:38.850Z,0.00
2023-01-13T01:08:38.848Z,0.00
2023-01-13T01:09:39.035Z,0.00
2023-01-13T01:10:38.837Z,0.00
2023-01-13T01:11:38.827Z,0.00
2023-01-13T01:12:38.829Z,0.00
2023-01-13T01:13:38.794Z,0.00
2023-01-13T01:14:38.891Z,0.00
2023-01-13T01:15:38.802Z,0.00
2023-01-13T01:16:38.876Z,0.00
2023-01-13T01:17:38.817Z,0.00
2023-01-13T01:18:38.827Z,0.00
2023-01-13T01:19:38.746Z,0.00
2023-01-13T01:20:38.729Z,0.00
2023-01-13T01:21:38.729Z,0.00
2023-01-13T01:22:39.251Z,0.00
2023-01-13T01:23:38.752Z,0.00
2023-01-13T01:24:38.708Z,0.00
2023-01-13T01:25:38.661Z,0.00
2023-01-13T01:26:38.672Z,0.00
2023-01-13T01:27:38.779Z,0.00
2023-01-13T01:28:38.629Z,0.00
2023-01-13T01:29:38.642Z,0.00
2023-01-13T01:30:38.652Z,0.00
2023-01-13T01:31:38.622Z,0.00
2023-01-13T01:32:38.575Z,0.00
2023-01-13T01:33:38.610Z,0.00
2023-01-13T01:34:38.591Z,0.00
2023-01-13T01:35:38.579Z,0.00
2023-01-13T01:36:38.527Z,0.00
2023-01-13T01:37:38.555Z,0.00
2023-01-13T01:38:38.543Z,0.00
2023-01-13T01:39:38.559Z,0.00
2023-01-13T01:40:38.560Z,0.00
2023-01-13T01:41:38.532Z,0.00
2023-01-13T01:42:38.475Z,0.00
2023-01-13T01:43:38.477Z,0.00
2023-01-13T01:44:38.491Z,0.00
2023-01-13T01:45:38.490Z,0.00
2023-01-13T01:46:38.532Z,0.00
2023-01-13T01:47:38.450Z,0.00
2023-01-13T01:48:38.401Z,0.00
2023-01-13T01:49:38.427Z,0.00
2023-01-13T01:50:38.422Z,0.00
2023-01-13T01:51:38.398Z,0.00
2023-01-13T01:52:38.396Z,0.00
2023-01-13T01:53:38.400Z,0.00
2023-01-13T01:54:38.355Z,0.00
2023-01-13T01:55:38.352Z,0.00
2023-01-13T01:56:38.364Z,0.00
2023-01-13T01:57:38.396Z,0.00
2023-01-13T01:58:38.367Z,0.00
2023-01-13T01:59:38.336Z,0.00
2023-01-13T02:00:38.331Z,0.00
2023-01-13T02:01:38.435Z,0.00
2023-01-13T02:02:38.472Z,0.00
2023-01-13T02:03:38.248Z,0.00
2023-01-13T02:04:38.323Z,0.00
2023-01-13T02:05:38.222Z,0.00
2023-01-13T02:06:38.220Z,0.00
2023-01-13T02:07:38.239Z,0.00
2023-01-13T02:08:38.225Z,0.00
2023-01-13T02:09:38.189Z,0.00
2023-01-13T02:10:38.255Z,0.00
2023-01-13T02:11:38.203Z,0.00
2023-01-13T02:12:38.120Z,0.00
2023-01-13T02:13:38.179Z,0.00
2023-01-13T02:14:38.141Z,0.00
2023-01-13T02:15:38.149Z,0.00
2023-01-13T02:16:38.255Z,0.00
2023-01-13T02:17:38.162Z,0.00
2023-01-13T02:18:38.125Z,0.00
2023-01-13T02:19:38.159Z,0.00
2023-01-13T02:20:38.073Z,0.00
2023-01-13T02:21:38.086Z,0.00
2023-01-13T02:22:38.090Z,0.00
2023-01-13T02:23:38.045Z,0.00
2023-01-13T02:24:38.045Z,0.00
2023-01-13T02:25:38.147Z,0.00
2023-01-13T02:26:38.046Z,0.00
2023-01-13T02:27:38.026Z,0.00
2023-01-13T02:28:38.064Z,0.00
2023-01-13T02:29:37.971Z,0.00
2023-01-13T02:30:37.978Z,0.00
2023-01-13T02:31:38.096Z,0.00
2023-01-13T02:32:37.960Z,0.00
2023-01-13T02:33:37.964Z,0.00
2023-01-13T02:34:37.972Z,0.00
2023-01-13T02:35:37.900Z,0.00
2023-01-13T02:36:37.925Z,0.00
2023-01-13T02:37:37.924Z,0.00
2023-01-13T02:38:37.893Z,0.00
2023-01-13T02:39:37.891Z,0.00
2023-01-13T02:40:37.917Z,0.00
2023-01-13T02:41:37.852Z,0.00
2023-01-13T02:42:37.846Z,0.00
2023-01-13T02:43:37.853Z,0.00
2023-01-13T02:44:37.888Z,0.00
2023-01-13T02:45:37.873Z,0.00
2023-01-13T02:46:37.839Z,0.00
2023-01-13T02:47:37.783Z,0.00
2023-01-13T02:48:37.804Z,0.00
2023-01-13T02:49:37.797Z,0.00
2023-01-13T02:50:37.771Z,0.00
2023-01-13T02:51:38.326Z,0.00
2023-01-13T02:52:37.883Z,0.00
2023-01-13T02:53:37.656Z,1.00
2023-01-13T02:54:37.737Z,0.00
2023-01-13T02:55:37.823Z,0.00
2023-01-13T02:56:37.708Z,0.00
2023-01-13T02:57:37.749Z,0.00
2023-01-13T02:58:37.757Z,0.00
2023-01-13T02:59:37.671Z,0.00
2023-01-13T03:00:38.561Z,0.00
2023-01-13T03:01:37.822Z,0.00
2023-01-13T03:02:37.724Z,0.00
2023-01-13T03:03:37.887Z,0.00
2023-01-13T03:04:37.754Z,0.00
2023-01-13T03:05:37.613Z,0.00
2023-01-13T03:06:37.700Z,0.00
2023-01-13T03:07:37.680Z,0.00
2023-01-13T03:08:37.580Z,0.00
2023-01-13T03:09:37.597Z,0.00
2023-01-13T03:10:37.540Z,0.00
2023-01-13T03:11:37.540Z,0.00
2023-01-13T03:12:37.550Z,0.00
2023-01-13T03:13:37.555Z,0.00
2023-01-13T03:14:37.528Z,0.00
2023-01-13T03:15:37.524Z,0.00
2023-01-13T03:16:37.638Z,0.00
2023-01-13T03:17:37.591Z,0.00
2023-01-13T03:18:38.204Z,0.00
2023-01-13T03:19:37.487Z,0.00
2023-01-13T03:20:38.103Z,0.00
2023-01-13T03:21:37.435Z,0.00
2023-01-13T03:22:37.681Z,0.00
2023-01-13T03:23:37.449Z,0.00
2023-01-13T03:24:37.488Z,0.00
2023-01-13T03:25:37.495Z,0.00
2023-01-13T03:26:37.372Z,0.00
2023-01-13T03:27:37.416Z,0.00
2023-01-13T03:28:37.519Z,0.00
2023-01-13T03:29:37.400Z,0.00
2023-01-13T03:30:37.488Z,0.00
2023-01-13T03:31:37.466Z,0.00
2023-01-13T03:32:37.304Z,0.00
2023-01-13T03:33:37.401Z,0.00
2023-01-13T03:34:38.090Z,0.00
2023-01-13T03:35:37.333Z,0.00
2023-01-13T03:36:37.302Z,0.00
2023-01-13T03:37:37.505Z,0.00
2023-01-13T03:38:37.310Z,0.00
2023-01-13T03:39:37.255Z,0.00
2023-01-13T03:40:37.276Z,0.00
2023-01-13T03:41:37.277Z,0.00
2023-01-13T03:42:37.176Z,0.00
2023-01-13T03:43:37.201Z,0.00
2023-01-13T03:44:37.192Z,0.00
2023-01-13T03:45:37.254Z,0.00
2023-01-13T03:46:37.250Z,0.00
2023-01-13T03:47:37.262Z,0.00
2023-01-13T03:48:37.116Z,0.00
2023-01-13T03:49:37.196Z,0.00
2023-01-13T03:50:37.127Z,0.00
2023-01-13T03:51:37.195Z,0.00
2023-01-13T03:52:37.198Z,0.00
2023-01-13T03:53:37.213Z,0.00
2023-01-13T03:54:37.105Z,0.00
2023-01-13T03:55:37.113Z,0.00
2023-01-13T03:56:37.117Z,0.00
2023-01-13T03:57:37.163Z,0.00
2023-01-13T03:58:37.131Z,0.00
2023-01-13T03:59:37.143Z,0.00
2023-01-13T04:00:37.042Z,0.00
2023-01-13T04:01:37.109Z,0.00
2023-01-13T04:02:37.001Z,0.00
2023-01-13T04:03:37.150Z,0.00
2023-01-13T04:04:37.538Z,0.00
2023-01-13T04:05:37.006Z,0.00
2023-01-13T04:06:36.933Z,0.00
2023-01-13T04:07:36.939Z,0.00
2023-01-13T04:08:36.937Z,0.00
2023-01-13T04:09:37.001Z,0.00
2023-01-13T04:10:37.016Z,0.00
2023-01-13T04:11:36.930Z,0.00
2023-01-13T04:12:36.863Z,0.00
2023-01-13T04:13:36.930Z,0.00
2023-01-13T04:14:36.946Z,0.00
2023-01-13T04:15:36.892Z,0.00
2023-01-13T04:16:37.731Z,0.00
2023-01-13T04:17:36.864Z,0.00
2023-01-13T04:18:36.909Z,0.00
2023-01-13T04:19:36.824Z,0.00
2023-01-13T04:20:36.883Z,0.00
2023-01-13T04:21:36.902Z,0.00
2023-01-13T04:22:36.802Z,0.00
2023-01-13T04:23:36.799Z,0.00
2023-01-13T04:24:36.906Z,0.00
2023-01-13T04:25:36.820Z,0.00
2023-01-13T04:26:36.815Z,0.00
2023-01-13T04:27:36.747Z,0.00
2023-01-13T04:28:36.728Z,0.00
2023-01-13T04:29:36.751Z,0.00
2023-01-13T04:30:36.696Z,0.00
2023-01-13T04:31:36.702Z,0.00
2023-01-13T04:32:36.706Z,0.00
2023-01-13T04:33:36.704Z,0.00
2023-01-13T04:34:36.665Z,0.00
2023-01-13T04:35:36.781Z,0.00
2023-01-13T04:36:36.687Z,0.00
2023-01-13T04:37:36.677Z,0.00
2023-01-13T04:38:36.643Z,0.00
2023-01-13T04:39:36.586Z,0.00
2023-01-13T04:40:36.570Z,0.00
2023-01-13T04:41:36.572Z,0.00
2023-01-13T04:42:36.579Z,0.00
2023-01-13T04:43:36.569Z,0.00
2023-01-13T04:44:36.534Z,0.00
2023-01-13T04:45:36.500Z,0.00
2023-01-13T04:46:36.577Z,0.00
2023-01-13T04:47:36.660Z,0.00
2023-01-13T04:48:36.560Z,0.00
2023-01-13T04:49:36.523Z,0.00
2023-01-13T04:50:36.487Z,0.00
2023-01-13T04:51:36.539Z,0.00
2023-01-13T04:52:36.540Z,0.00
2023-01-13T04:53:36.446Z,0.00
2023-01-13T04:54:36.449Z,0.00
2023-01-13T04:55:36.474Z,0.00
2023-01-13T04:56:36.523Z,0.00
2023-01-13T04:57:36.423Z,0.00
2023-01-13T04:58:36.378Z,0.00
2023-01-13T04:59:36.442Z,0.00
2023-01-13T05:00:36.403Z,0.00
2023-01-13T05:01:36.495Z,0.00
2023-01-13T05:02:36.421Z,0.00
2023-01-13T05:03:36.315Z,0.00
2023-01-13T05:04:36.425Z,0.00
2023-01-13T05:05:36.317Z,0.00
2023-01-13T05:06:36.331Z,0.00
2023-01-13T05:07:36.330Z,0.00
2023-01-13T05:08:36.333Z,0.00
2023-01-13T05:09:36.251Z,0.00
2023-01-13T05:10:36.245Z,0.00
2023-01-13T05:11:36.352Z,0.00
2023-01-13T05:12:36.475Z,0.00
2023-01-13T05:13:36.273Z,0.00
2023-01-13T05:14:36.275Z,0.00
2023-01-13T05:15:36.245Z,0.00
2023-01-13T05:16:36.345Z,0.00
2023-01-13T05:17:36.408Z,0.00
2023-01-13T05:18:36.207Z,0.00
2023-01-13T05:19:36.225Z,0.00
2023-01-13T05:20:36.269Z,0.00
2023-01-13T05:21:36.122Z,0.00
2023-01-13T05:22:36.151Z,0.00
2023-01-13T05:23:36.129Z,0.00
2023-01-13T05:24:36.192Z,0.00
2023-01-13T05:25:36.141Z,0.00
2023-01-13T05:26:36.103Z,0.00
2023-01-13T05:27:36.163Z,0.00
2023-01-13T05:28:36.067Z,0.00
2023-01-13T05:29:36.082Z,0.00
2023-01-13T05:30:36.071Z,0.00
2023-01-13T05:31:36.168Z,0.00
2023-01-13T05:32:36.098Z,0.00
2023-01-13T05:33:36.166Z,0.00
2023-01-13T05:34:36.053Z,0.00
2023-01-13T05:35:36.070Z,0.00
2023-01-13T05:36:36.018Z,0.00
2023-01-13T05:37:36.013Z,0.00
2023-01-13T05:38:35.994Z,0.00
2023-01-13T05:39:35.925Z,0.00
2023-01-13T05:40:35.933Z,0.00
2023-01-13T05:41:35.914Z,0.00
2023-01-13T05:42:35.957Z,0.00
2023-01-13T05:43:35.934Z,0.00
2023-01-13T05:44:35.972Z,0.00
2023-01-13T05:45:35.875Z,0.00
2023-01-13T05:46:36.014Z,0.00
2023-01-13T05:47:35.880Z,0.00
2023-01-13T05:48:35.896Z,0.00
2023-01-13T05:49:35.797Z,0.00
2023-01-13T05:50:35.895Z,0.00
2023-01-13T05:51:35.799Z,0.00
2023-01-13T05:52:35.809Z,0.00
2023-01-13T05:53:35.808Z,0.00
2023-01-13T05:54:35.847Z,0.00
2023-01-13T05:55:35.825Z,0.00
2023-01-13T05:56:35.771Z,0.00
2023-01-13T05:57:35.741Z,0.00
2023-01-13T05:58:35.792Z,0.00
2023-01-13T05:59:35.739Z,0.00
2023-01-13T06:00:35.759Z,0.00
2023-01-13T06:01:35.790Z,0.00
2023-01-13T06:02:35.767Z,0.00
2023-01-13T06:03:36.396Z,0.00
2023-01-13T06:04:35.734Z,0.00
2023-01-13T06:05:35.682Z,0.00
2023-01-13T06:06:35.702Z,0.00
2023-01-13T06:07:35.697Z,0.00
2023-01-13T06:08:37.472Z,0.00
2023-01-13T06:09:35.624Z,0.00
2023-01-13T06:10:35.615Z,0.00
2023-01-13T06:11:35.601Z,0.00
2023-01-13T06:12:35.647Z,0.00
2023-01-13T06:13:35.640Z,0.00
2023-01-13T06:14:37.238Z,0.00
2023-01-13T06:15:35.653Z,0.00
2023-01-13T06:16:35.618Z,0.00
2023-01-13T06:17:35.570Z,0.00
2023-01-13T06:18:35.617Z,0.00
2023-01-13T06:19:35.559Z,0.00
2023-01-13T06:20:35.525Z,0.00
2023-01-13T06:21:35.639Z,0.00
2023-01-13T06:22:35.509Z,0.00
2023-01-13T06:23:35.506Z,0.00
2023-01-13T06:24:35.500Z,0.00
2023-01-13T06:25:35.503Z,0.00
2023-01-13T06:26:35.467Z,0.00
2023-01-13T06:27:35.541Z,0.00
2023-01-13T06:28:35.442Z,0.00
2023-01-13T06:29:35.499Z,0.00
2023-01-13T06:30:35.449Z,0.00
2023-01-13T06:31:35.475Z,0.00
2023-01-13T06:32:35.429Z,0.00
2023-01-13T06:33:35.476Z,0.00
2023-01-13T06:34:35.434Z,0.00
2023-01-13T06:35:35.347Z,0.00
2023-01-13T06:36:35.369Z,0.00
2023-01-13T06:37:35.388Z,0.00
2023-01-13T06:38:35.350Z,0.00
2023-01-13T06:39:35.348Z,0.00
2023-01-13T06:40:35.303Z,0.00
2023-01-13T06:41:35.277Z,0.00
2023-01-13T06:42:35.336Z,0.00
2023-01-13T06:43:35.331Z,0.00
2023-01-13T06:44:35.343Z,0.00
2023-01-13T06:45:35.341Z,0.00
2023-01-13T06:46:35.284Z,0.00
2023-01-13T06:47:35.241Z,0.00
2023-01-13T06:48:35.525Z,0.00
2023-01-13T06:49:35.268Z,0.00
2023-01-13T06:50:35.302Z,0.00
2023-01-13T06:51:35.229Z,0.00
2023-01-13T06:52:35.240Z,0.00
2023-01-13T06:53:35.253Z,0.00
2023-01-13T06:54:35.196Z,0.00
2023-01-13T06:55:35.156Z,0.00
2023-01-13T06:56:35.169Z,0.00
2023-01-13T06:57:35.137Z,0.00
2023-01-13T06:58:35.173Z,0.00
2023-01-13T06:59:35.080Z,0.00
2023-01-13T07:00:35.122Z,0.00
2023-01-13T07:01:35.641Z,0.00
2023-01-13T07:02:35.071Z,0.00
2023-01-13T07:03:35.097Z,0.00
2023-01-13T07:04:35.080Z,0.00
2023-01-13T07:05:35.027Z,0.00
2023-01-13T07:06:35.021Z,0.00
2023-01-13T07:07:35.099Z,0.00
2023-01-13T07:08:35.000Z,0.00
2023-01-13T07:09:35.048Z,0.00
2023-01-13T07:10:35.041Z,0.00
2023-01-13T07:11:34.963Z,0.00
2023-01-13T07:12:34.966Z,0.00
2023-01-13T07:13:40.493Z,0.00
2023-01-13T07:14:34.937Z,0.00
2023-01-13T07:15:34.957Z,0.00
2023-01-13T07:16:35.017Z,0.00
2023-01-13T07:17:34.890Z,0.00
2023-01-13T07:18:34.897Z,0.00
2023-01-13T07:19:34.912Z,0.00
2023-01-13T07:20:34.880Z,0.00
2023-01-13T07:21:34.919Z,0.00
2023-01-13T07:22:34.881Z,0.00
2023-01-13T07:23:34.853Z,0.00
2023-01-13T07:24:34.853Z,0.00
2023-01-13T07:25:34.875Z,0.00
2023-01-13T07:26:34.805Z,0.00
2023-01-13T07:27:34.885Z,0.00
2023-01-13T07:28:34.793Z,0.00
2023-01-13T07:29:34.831Z,0.00
2023-01-13T07:30:34.780Z,0.00
2023-01-13T07:31:35.139Z,0.00
2023-01-13T07:32:34.753Z,0.00
2023-01-13T07:33:34.753Z,0.00
2023-01-13T07:34:34.715Z,0.00
2023-01-13T07:35:34.739Z,0.00
2023-01-13T07:36:34.703Z,0.00
2023-01-13T07:37:34.686Z,0.00
2023-01-13T07:38:34.725Z,0.00
2023-01-13T07:39:34.681Z,0.00
2023-01-13T07:40:34.653Z,0.00
2023-01-13T07:41:34.678Z,0.00
2023-01-13T07:42:34.692Z,0.00
2023-01-13T07:43:34.615Z,0.00
2023-01-13T07:44:34.614Z,0.00
2023-01-13T07:45:34.694Z,0.00
2023-01-13T07:46:34.635Z,0.00
2023-01-13T07:47:42.258Z,0.00
2023-01-13T07:48:39.670Z,0.00
2023-01-13T07:49:34.592Z,0.00
2023-01-13T07:50:34.540Z,0.00
2023-01-13T07:51:34.571Z,0.00
2023-01-13T07:52:34.572Z,0.00
2023-01-13T07:53:34.725Z,0.00
2023-01-13T07:54:40.654Z,0.00
2023-01-13T07:55:34.600Z,0.00
2023-01-13T07:56:34.540Z,0.00
2023-01-13T07:57:34.506Z,0.00
2023-01-13T07:58:34.546Z,0.00
2023-01-13T07:59:34.484Z,0.00
2023-01-13T08:00:34.532Z,0.00
2023-01-13T08:01:34.586Z,0.00
2023-01-13T08:02:34.552Z,0.00
2023-01-13T08:03:34.401Z,0.00
2023-01-13T08:04:34.455Z,0.00
2023-01-13T08:05:34.394Z,0.00
2023-01-13T08:06:34.435Z,0.00
2023-01-13T08:07:34.398Z,0.00
2023-01-13T08:08:34.355Z,0.00
2023-01-13T08:09:34.335Z,0.00
2023-01-13T08:10:34.460Z,0.00
2023-01-13T08:11:34.330Z,0.00
2023-01-13T08:12:34.334Z,0.00
2023-01-13T08:13:34.285Z,0.00
2023-01-13T08:14:34.286Z,0.00
2023-01-13T08:15:34.288Z,0.00
2023-01-13T08:16:52.571Z,0.00
2023-01-13T08:17:34.340Z,0.00
2023-01-13T08:18:34.310Z,0.00
2023-01-13T08:19:34.215Z,0.00
2023-01-13T08:20:34.401Z,0.00
2023-01-13T08:21:34.237Z,0.00
2023-01-13T08:22:34.235Z,0.00
2023-01-13T08:23:34.243Z,0.00
2023-01-13T08:24:34.234Z,0.00
2023-01-13T08:25:34.222Z,0.00
2023-01-13T08:26:34.268Z,0.00
2023-01-13T08:27:34.209Z,0.00
2023-01-13T08:28:34.227Z,0.00
2023-01-13T08:29:34.141Z,0.00
2023-01-13T08:30:34.528Z,1.00
2023-01-13T08:31:34.090Z,0.00
2023-01-13T08:32:34.106Z,0.00
2023-01-13T08:33:34.083Z,1.00
2023-01-13T08:34:34.615Z,1.00
2023-01-13T08:35:34.124Z,1.00
2023-01-13T08:36:34.325Z,0.00
2023-01-13T08:37:34.029Z,0.00
2023-01-13T08:38:34.043Z,2.00
2023-01-13T08:39:34.031Z,1.00
2023-01-13T08:40:34.017Z,1.00
2023-01-13T08:41:34.051Z,0.00
2023-01-13T08:42:34.052Z,0.00
2023-01-13T08:43:34.028Z,2.00
2023-01-13T08:44:34.078Z,2.00
2023-01-13T08:45:34.046Z,4.00
2023-01-13T08:46:33.989Z,7.00
2023-01-13T08:47:33.908Z,4.00
2023-01-13T08:48:33.880Z,1.00
2023-01-13T08:49:33.826Z,1.00
2023-01-13T08:50:33.898Z,1.00
2023-01-13T08:52:45.386Z,2.00
2023-01-13T08:53:46.308Z,2.00
2023-01-13T08:54:46.243Z,5.00
2023-01-13T08:55:46.427Z,8.00
2023-01-13T08:56:46.311Z,5.00
2023-01-13T08:57:46.249Z,4.00
2023-01-13T08:58:46.250Z,5.00
2023-01-13T08:59:46.270Z,3.00
2023-01-13T09:00:46.184Z,5.00
2023-01-13T09:01:46.670Z,6.00
2023-01-13T09:02:46.173Z,4.00
2023-01-13T09:03:46.099Z,3.00
2023-01-13T09:04:46.175Z,6.00
2023-01-13T09:05:46.113Z,5.00
2023-01-13T09:06:46.122Z,7.00
2023-01-13T09:08:57.773Z,8.00
2023-01-13T09:09:58.426Z,9.00
2023-01-13T09:10:58.435Z,9.00
2023-01-13T09:11:58.443Z,12.00
2023-01-13T09:12:58.465Z,11.00
2023-01-13T09:13:58.764Z,9.00
2023-01-13T09:14:58.426Z,10.00
2023-01-13T09:15:58.433Z,12.00
2023-01-13T09:16:58.388Z,15.00
2023-01-13T09:17:58.391Z,8.00
2023-01-13T09:18:58.392Z,13.00
2023-01-13T09:19:58.351Z,11.00
2023-01-13T09:20:58.510Z,13.00
2023-01-13T09:21:58.315Z,16.00
2023-01-13T09:22:58.335Z,14.00
2023-01-13T09:23:58.337Z,13.00
2023-01-13T09:24:58.348Z,15.00
2023-01-13T09:25:58.345Z,11.00
2023-01-13T09:26:58.352Z,13.00
2023-01-13T09:27:58.267Z,14.00
2023-01-13T09:28:58.255Z,14.00
2023-01-13T09:29:58.276Z,16.00
2023-01-13T09:30:58.377Z,16.00
2023-01-13T09:31:58.260Z,18.00
2023-01-13T09:32:58.291Z,19.00
2023-01-13T09:33:58.237Z,22.00
2023-01-13T09:34:58.207Z,19.00
2023-01-13T09:35:58.218Z,18.00
2023-01-13T09:36:58.216Z,17.00
2023-01-13T09:37:58.167Z,16.00
2023-01-13T09:40:09.559Z,23.00
2023-01-13T09:41:10.511Z,21.00
2023-01-13T09:42:11.143Z,20.00
2023-01-13T09:43:10.528Z,23.00
2023-01-13T09:44:10.528Z,26.00
2023-01-13T09:46:22.010Z,29.00
2023-01-13T09:47:22.843Z,26.00
2023-01-13T09:48:22.866Z,24.00
2023-01-13T09:49:22.928Z,28.00
2023-01-13T09:50:22.824Z,27.00
2023-01-13T09:51:22.906Z,26.00
2023-01-13T09:52:23.657Z,34.00
2023-01-13T09:53:22.841Z,31.00
2023-01-13T09:54:22.807Z,34.00
2023-01-13T09:55:22.808Z,38.00
2023-01-13T09:56:22.881Z,40.00
2023-01-13T09:57:22.771Z,38.00
2023-01-13T09:58:22.744Z,36.00
2023-01-13T09:59:22.736Z,34.00
2023-01-13T10:00:33.804Z,39.00
2023-01-13T10:01:22.872Z,30.00
2023-01-13T10:02:22.802Z,37.00
2023-01-13T10:03:22.735Z,88.00
2023-01-13T10:04:22.749Z,74.00
2023-01-13T10:05:22.675Z,51.00
2023-01-13T10:06:23.198Z,50.00
2023-01-13T10:07:23.239Z,73.00
2023-01-13T10:08:22.707Z,93.00
2023-01-13T10:09:22.659Z,95.00
2023-01-13T10:10:27.681Z,64.00
2023-01-13T10:11:22.674Z,79.00
2023-01-13T10:12:22.812Z,127.00
2023-01-13T10:13:22.626Z,127.00
2023-01-13T10:14:22.711Z,131.00
2023-01-13T10:15:22.704Z,114.00
2023-01-13T10:16:22.805Z,116.00
2023-01-13T10:17:22.626Z,133.00
2023-01-13T10:18:22.628Z,112.00
2023-01-13T10:19:22.565Z,157.00
2023-01-13T10:20:22.619Z,94.00
2023-01-13T10:21:22.629Z,150.00
2023-01-13T10:22:22.750Z,123.00
2023-01-13T10:23:22.501Z,141.00
2023-01-13T10:24:22.553Z,142.00
2023-01-13T10:25:22.500Z,144.00
2023-01-13T10:26:23.425Z,153.00
2023-01-13T10:27:27.921Z,140.00
2023-01-13T10:28:22.467Z,133.00
2023-01-13T10:29:22.494Z,216.00
2023-01-13T10:30:23.352Z,103.00
2023-01-13T10:31:22.525Z,319.00
2023-01-13T10:32:22.443Z,82.00
2023-01-13T10:33:22.443Z,284.00
2023-01-13T10:34:22.364Z,105.00
2023-01-13T10:35:22.467Z,63.00
2023-01-13T10:36:22.424Z,265.00
2023-01-13T10:37:22.469Z,82.00
2023-01-13T10:38:22.547Z,146.00
2023-01-13T10:39:22.389Z,107.00
2023-01-13T10:40:22.346Z,95.00
2023-01-13T10:41:22.354Z,94.00
2023-01-13T10:42:22.887Z,72.00
2023-01-13T10:43:22.338Z,67.00
2023-01-13T10:44:23.409Z,98.00
2023-01-13T10:45:22.358Z,306.00
2023-01-13T10:46:22.321Z,341.00
2023-01-13T10:47:22.308Z,126.00
2023-01-13T10:48:22.503Z,146.00
2023-01-13T10:49:25.381Z,153.00
2023-01-13T10:50:22.427Z,200.00
2023-01-13T10:51:22.264Z,131.00
2023-01-13T10:52:22.234Z,122.00
2023-01-13T10:53:22.185Z,109.00
2023-01-13T10:54:22.247Z,99.00
2023-01-13T10:55:22.185Z,99.00
2023-01-13T10:57:33.973Z,111.00
2023-01-13T10:58:34.812Z,129.00
2023-01-13T10:59:35.526Z,96.00
2023-01-13T11:00:34.915Z,128.00
2023-01-13T11:01:35.019Z,108.00
2023-01-13T11:02:34.849Z,114.00
2023-01-13T11:03:34.900Z,104.00
2023-01-13T11:04:34.888Z,102.00
2023-01-13T11:05:35.138Z,92.00
2023-01-13T11:06:35.479Z,91.00
2023-01-13T11:07:34.856Z,101.00
2023-01-13T11:08:39.952Z,97.00
2023-01-13T11:09:34.770Z,99.00
2023-01-13T11:10:34.784Z,85.00
2023-01-13T11:11:34.848Z,76.00
2023-01-13T11:12:34.898Z,69.00
2023-01-13T11:13:34.704Z,87.00
2023-01-13T11:14:35.000Z,115.00
2023-01-13T11:15:39.865Z,430.00
2023-01-13T11:16:34.712Z,130.00
2023-01-13T11:17:35.025Z,183.00
2023-01-13T11:18:35.030Z,533.00
2023-01-13T11:19:38.018Z,430.00
2023-01-13T11:20:34.654Z,346.00
2023-01-13T11:21:35.403Z,324.00
2023-01-13T11:22:34.991Z,211.00
2023-01-13T11:23:35.337Z,204.00
2023-01-13T11:24:34.663Z,440.00
2023-01-13T11:25:34.587Z,78.00
2023-01-13T11:26:34.609Z,128.00
2023-01-13T11:27:35.391Z,263.00
2023-01-13T11:28:35.573Z,182.00
2023-01-13T11:29:35.034Z,156.00
2023-01-13T11:30:34.727Z,118.00
2023-01-13T11:31:39.966Z,211.00
2023-01-13T11:32:34.531Z,378.00
2023-01-13T11:33:34.725Z,212.00
2023-01-13T11:34:34.620Z,109.00
2023-01-13T11:35:34.428Z,99.00
2023-01-13T11:36:34.445Z,220.00
2023-01-13T11:37:45.353Z,210.00
2023-01-13T11:38:34.406Z,721.00
2023-01-13T11:39:34.403Z,458.00
2023-01-13T11:40:34.368Z,815.00
2023-01-13T11:41:34.414Z,120.00
2023-01-13T11:42:36.631Z,518.00
2023-01-13T11:43:34.329Z,339.00
2023-01-13T11:44:34.503Z,313.00
2023-01-13T11:45:34.303Z,132.00
2023-01-13T11:46:34.443Z,193.00
2023-01-13T11:47:34.361Z,123.00
2023-01-13T11:48:34.263Z,240.00
2023-01-13T11:49:34.271Z,166.00
2023-01-13T11:50:34.794Z,223.00
2023-01-13T11:51:34.290Z,215.00
2023-01-13T11:52:34.180Z,160.00
2023-01-13T11:53:34.252Z,184.00
2023-01-13T11:54:34.265Z,239.00
2023-01-13T11:55:40.457Z,182.00
2023-01-13T11:56:34.210Z,133.00
2023-01-13T11:57:34.123Z,172.00
2023-01-13T11:58:49.492Z,181.00
2023-01-13T11:59:34.124Z,168.00
2023-01-13T12:00:34.194Z,156.00
2023-01-13T12:02:45.589Z,142.00
2023-01-13T12:03:46.613Z,108.00
2023-01-13T12:04:46.549Z,165.00
2023-01-13T12:05:46.568Z,249.00
2023-01-13T12:06:46.514Z,72.00
2023-01-13T12:07:46.570Z,182.00
2023-01-13T12:08:46.489Z,193.00
2023-01-13T12:09:46.489Z,168.00
2023-01-13T12:10:46.483Z,135.00
2023-01-13T12:11:46.494Z,149.00
2023-01-13T12:12:46.467Z,174.00
2023-01-13T12:13:46.509Z,151.00
2023-01-13T12:14:46.473Z,144.00
2023-01-13T12:15:46.412Z,146.00
2023-01-13T12:16:46.540Z,166.00
2023-01-13T12:17:46.436Z,133.00
2023-01-13T12:18:46.591Z,172.00
2023-01-13T12:20:57.780Z,165.00
2023-01-13T12:21:58.844Z,167.00
2023-01-13T12:22:58.829Z,158.00
2023-01-13T12:23:58.767Z,173.00
2023-01-13T12:24:58.766Z,119.00
2023-01-13T12:25:58.726Z,734.00
2023-01-13T12:26:58.787Z,120.00
2023-01-13T12:27:58.784Z,185.00
2023-01-13T12:28:58.804Z,161.00
2023-01-13T12:29:58.698Z,288.00
2023-01-13T12:32:10.273Z,657.00
2023-01-13T12:33:11.118Z,827.00
2023-01-13T12:34:11.139Z,489.00
2023-01-13T12:35:11.130Z,785.00
2023-01-13T12:36:11.190Z,782.00
2023-01-13T12:37:11.206Z,338.00
2023-01-13T12:38:11.092Z,554.00
2023-01-13T12:39:11.049Z,403.00
2023-01-13T12:40:11.048Z,436.00
2023-01-13T12:41:11.150Z,179.00
2023-01-13T12:42:11.068Z,502.00
2023-01-13T12:43:29.297Z,525.00
2023-01-13T12:44:11.040Z,957.00
2023-01-13T12:46:34.225Z,787.00
2023-01-13T12:47:34.719Z,1270.00
2023-01-13T12:48:34.655Z,165.00
2023-01-13T12:49:34.775Z,472.00
2023-01-13T12:50:34.759Z,472.00
2023-01-13T12:52:57.376Z,184.00
2023-01-13T12:53:58.242Z,116.00
2023-01-13T12:54:58.250Z,134.00
2023-01-13T12:55:58.265Z,361.00
2023-01-13T12:56:58.268Z,652.00
2023-01-13T12:59:20.998Z,258.00
2023-01-13T13:00:21.948Z,145.00
2023-01-13T13:01:22.050Z,190.00
2023-01-13T13:02:22.048Z,264.00
2023-01-13T13:03:21.869Z,849.00
2023-01-13T13:04:21.922Z,278.00
2023-01-13T13:05:22.256Z,1242.00
2023-01-13T13:06:21.812Z,272.00
2023-01-13T13:07:22.128Z,1272.00
2023-01-13T13:08:22.351Z,222.00
2023-01-13T13:09:21.861Z,737.00
2023-01-13T13:10:32.594Z,747.00
2023-01-13T13:11:21.806Z,421.00
2023-01-13T13:12:21.762Z,812.00
2023-01-13T13:13:21.810Z,516.00
2023-01-13T13:14:21.875Z,236.00
2023-01-13T13:15:22.044Z,593.00
2023-01-13T13:16:22.282Z,507.00
2023-01-13T13:17:21.752Z,355.00
2023-01-13T13:18:21.848Z,286.00
2023-01-13T13:19:23.131Z,330.00